Time;durP1;ratioP1;P1;durP2;ratioP2;P2;SDS_P1;SDS_P2;PMS_P1;PMS_P2;Temp;Humidity;BMP_temperature;BMP_pressure;BME280_temperature;BME280_humidity;BME280_pressure;Samples;Min_cycle;Max_cycle;Signal;HPM_P1;HPM_P2
2023/08/01 00:01:53;;;;;;;0.55;0.50;;;18.10;99.90;;;;;;4175340;28;20179;-63
2023/08/01 00:03:54;;;;;;;0.68;0.52;;;18.10;99.90;;;;;;4171030;28;20033;-63
2023/08/01 00:05:55;;;;;;;0.68;0.50;;;18.10;99.90;;;;;;4148926;28;20045;-63
2023/08/01 00:07:55;;;;;;;0.95;0.70;;;18.10;99.90;;;;;;4154324;28;20501;-63
2023/08/01 00:09:56;;;;;;;0.30;0.30;;;18.10;99.90;;;;;;4154117;28;20068;-71
2023/08/01 00:11:56;;;;;;;1.38;0.70;;;18.10;99.90;;;;;;4174231;28;20153;-71
2023/08/01 00:13:57;;;;;;;2.80;0.57;;;18.10;99.90;;;;;;4166308;28;20053;-71
2023/08/01 00:15:57;;;;;;;1.45;0.68;;;18.10;99.90;;;;;;4168111;28;20063;-71
2023/08/01 00:17:58;;;;;;;0.95;0.57;;;18.20;99.90;;;;;;4166793;28;20397;-71
2023/08/01 00:19:59;;;;;;;0.88;0.65;;;18.20;99.90;;;;;;4177533;28;20029;-71
2023/08/01 00:21:59;;;;;;;0.40;0.40;;;18.20;99.90;;;;;;4178381;28;20037;-72
2023/08/01 00:24:00;;;;;;;0.68;0.63;;;18.20;99.90;;;;;;4172027;28;20393;-71
2023/08/01 00:26:00;;;;;;;1.10;0.68;;;18.20;99.90;;;;;;4170731;28;20049;-72
2023/08/01 00:28:01;;;;;;;1.15;0.40;;;18.20;99.90;;;;;;4150584;28;20034;-71
2023/08/01 00:30:02;;;;;;;0.57;0.50;;;18.20;99.90;;;;;;4159912;28;20040;-72
2023/08/01 00:32:03;;;;;;;0.75;0.63;;;18.20;99.90;;;;;;4177739;28;20126;-71
2023/08/01 00:34:03;;;;;;;0.80;0.57;;;18.20;99.90;;;;;;4177480;28;20040;-71
2023/08/01 00:36:08;;;;;;;0.80;0.70;;;18.20;99.90;;;;;;4171759;28;20371;-70
2023/08/01 00:38:09;;;;;;;1.83;0.60;;;18.20;99.90;;;;;;4166875;28;20486;-71
2023/08/01 00:40:10;;;;;;;0.70;0.60;;;18.30;99.90;;;;;;4170671;28;20035;-73
2023/08/01 00:42:11;;;;;;;1.02;0.70;;;18.30;99.90;;;;;;4178627;28;20040;-71
2023/08/01 00:44:12;;;;;;;1.27;0.60;;;18.30;99.90;;;;;;4170304;28;20397;-71
2023/08/01 00:46:13;;;;;;;0.73;0.60;;;18.30;99.90;;;;;;4164207;28;20049;-70
2023/08/01 00:48:13;;;;;;;1.85;0.80;;;18.30;99.90;;;;;;4154287;28;20029;-71
2023/08/01 00:50:14;;;;;;;0.65;0.60;;;18.30;99.90;;;;;;4171488;28;20098;-71
2023/08/01 00:52:14;;;;;;;1.90;0.60;;;18.40;99.90;;;;;;4177556;28;20025;-71
2023/08/01 00:54:16;;;;;;;0.73;0.70;;;18.30;99.90;;;;;;4174160;28;20029;-71
2023/08/01 00:56:17;;;;;;;0.80;0.55;;;18.40;99.90;;;;;;4166265;28;20029;-70
2023/08/01 00:58:17;;;;;;;0.77;0.50;;;18.30;99.90;;;;;;4175670;28;20036;-71
2023/08/01 01:00:18;;;;;;;0.70;0.57;;;18.30;99.90;;;;;;4169447;28;20481;-71
2023/08/01 01:02:19;;;;;;;1.27;0.47;;;18.40;99.90;;;;;;4178371;28;20025;-71
2023/08/01 01:04:19;;;;;;;2.25;0.55;;;18.40;99.90;;;;;;4174891;28;20108;-71
2023/08/01 01:06:31;;;;;;;0.88;0.77;;;18.40;99.90;;;;;;4146867;28;20041;-71
2023/08/01 01:08:31;;;;;;;1.98;1.10;;;18.40;99.90;;;;;;4173193;28;20044;-71
2023/08/01 01:10:32;;;;;;;1.20;1.08;;;18.40;99.90;;;;;;4172542;28;20033;-71
2023/08/01 01:12:33;;;;;;;1.77;1.00;;;18.40;99.90;;;;;;4177972;28;20095;-71
2023/08/01 01:14:33;;;;;;;1.27;1.10;;;18.30;99.90;;;;;;4178877;28;20398;-71
2023/08/01 01:16:34;;;;;;;1.42;1.25;;;18.40;99.90;;;;;;4166729;28;20266;-71
2023/08/01 01:18:34;;;;;;;1.48;1.27;;;18.40;99.90;;;;;;4176968;28;20037;-70
2023/08/01 01:20:36;;;;;;;1.30;1.15;;;18.30;99.90;;;;;;4172297;28;20033;-73
2023/08/01 01:22:37;;;;;;;2.10;1.35;;;18.30;99.90;;;;;;4160855;28;20144;-73
2023/08/01 01:24:41;;;;;;;1.50;1.20;;;18.30;99.90;;;;;;4175323;28;20489;-73
2023/08/01 01:26:43;;;;;;;1.20;1.00;;;18.20;99.90;;;;;;4152920;28;20025;-73
2023/08/01 01:28:44;;;;;;;2.53;1.30;;;18.10;99.90;;;;;;4174051;28;20168;-72
2023/08/01 01:30:45;;;;;;;2.70;1.30;;;18.10;99.90;;;;;;4175883;28;20348;-72
2023/08/01 01:32:46;;;;;;;1.50;1.20;;;18.10;99.90;;;;;;4177250;28;20025;-72
2023/08/01 01:34:47;;;;;;;2.35;1.38;;;18.00;99.90;;;;;;4175699;28;20040;-73
2023/08/01 01:36:47;;;;;;;1.58;1.30;;;18.00;99.90;;;;;;4158103;28;20025;-72
2023/08/01 01:38:48;;;;;;;1.33;1.23;;;18.00;99.90;;;;;;4171684;28;20112;-72
2023/08/01 01:40:48;;;;;;;1.65;1.30;;;17.90;99.90;;;;;;4169125;28;20367;-72
2023/08/01 01:42:49;;;;;;;2.03;1.60;;;17.90;99.90;;;;;;4179105;28;20033;-72
2023/08/01 01:44:50;;;;;;;1.38;1.10;;;17.90;99.90;;;;;;4176676;28;20493;-72
2023/08/01 01:46:50;;;;;;;1.95;1.60;;;17.90;99.90;;;;;;4169843;28;20069;-72
2023/08/01 01:48:51;;;;;;;2.30;1.85;;;17.90;99.90;;;;;;4167119;28;20036;-71
2023/08/01 01:50:51;;;;;;;2.28;1.48;;;17.80;99.90;;;;;;4168871;28;20117;-72
2023/08/01 01:52:52;;;;;;;1.90;1.50;;;17.80;99.90;;;;;;4164356;28;20064;-72
2023/08/01 01:54:53;;;;;;;1.67;1.50;;;17.80;99.90;;;;;;4166198;28;20457;-71
2023/08/01 01:56:53;;;;;;;1.70;1.42;;;17.80;99.90;;;;;;4166526;28;20091;-71
2023/08/01 01:58:54;;;;;;;1.80;1.60;;;17.80;99.90;;;;;;4175221;28;20025;-71
2023/08/01 02:00:54;;;;;;;3.45;1.60;;;17.80;99.90;;;;;;4156302;28;20681;-71
2023/08/01 02:02:55;;;;;;;1.90;1.75;;;17.80;99.90;;;;;;4154925;28;20050;-71
2023/08/01 02:04:56;;;;;;;2.00;1.70;;;17.80;99.90;;;;;;4169728;28;20033;-71
2023/08/01 02:06:56;;;;;;;3.03;1.80;;;17.80;99.90;;;;;;4164523;28;20033;-71
2023/08/01 02:08:57;;;;;;;3.25;2.35;;;17.80;99.90;;;;;;4167992;28;20064;-71
2023/08/01 02:10:58;;;;;;;6.28;2.53;;;17.80;99.90;;;;;;4162618;28;20029;-71
2023/08/01 02:12:59;;;;;;;3.97;2.60;;;17.70;99.90;;;;;;4175247;28;20440;-71
2023/08/01 02:14:59;;;;;;;4.47;2.53;;;17.70;99.90;;;;;;4173941;28;20033;-72
2023/08/01 02:17:00;;;;;;;3.47;2.55;;;17.70;99.90;;;;;;4170886;28;20037;-71
2023/08/01 02:19:00;;;;;;;4.50;2.83;;;17.70;99.90;;;;;;4177382;28;20029;-72
2023/08/01 02:21:01;;;;;;;6.85;3.55;;;17.70;99.90;;;;;;4175688;28;20099;-71
2023/08/01 02:23:02;;;;;;;3.58;2.88;;;17.70;99.90;;;;;;4176795;28;20112;-71
2023/08/01 02:25:03;;;;;;;7.18;3.97;;;17.70;99.90;;;;;;4174570;28;20037;-72
2023/08/01 02:27:03;;;;;;;4.88;4.00;;;17.70;99.90;;;;;;4166947;28;20033;-71
2023/08/01 02:29:04;;;;;;;4.18;3.22;;;17.70;99.90;;;;;;4171588;28;20083;-70
2023/08/01 02:31:05;;;;;;;7.70;4.13;;;17.70;99.90;;;;;;4166512;28;20064;-64
2023/08/01 02:33:05;;;;;;;9.65;4.75;;;17.70;99.90;;;;;;4166444;28;20037;-64
2023/08/01 02:35:06;;;;;;;10.50;4.82;;;17.60;99.90;;;;;;4166551;28;20029;-64
2023/08/01 02:37:07;;;;;;;7.20;4.85;;;17.60;99.90;;;;;;4168568;28;20523;-64
2023/08/01 02:39:07;;;;;;;7.50;4.47;;;17.60;99.90;;;;;;4168441;28;20485;-64
2023/08/01 02:41:08;;;;;;;7.38;5.43;;;17.60;99.90;;;;;;4168677;28;20041;-64
2023/08/01 02:43:09;;;;;;;6.20;5.05;;;17.60;99.90;;;;;;4167894;28;20033;-64
2023/08/01 02:45:09;;;;;;;7.63;5.18;;;17.60;99.90;;;;;;4164178;28;20041;-66
2023/08/01 02:47:10;;;;;;;10.55;6.35;;;17.60;99.90;;;;;;4145184;28;20026;-64
2023/08/01 02:49:11;;;;;;;11.02;5.75;;;17.50;99.90;;;;;;4170468;28;20124;-64
2023/08/01 02:51:11;;;;;;;9.73;5.53;;;17.50;99.90;;;;;;4161490;28;20087;-64
2023/08/01 02:53:12;;;;;;;10.35;6.10;;;17.50;99.90;;;;;;4166007;28;20025;-64
2023/08/01 02:55:12;;;;;;;6.60;5.32;;;17.40;99.90;;;;;;4163501;28;20121;-64
2023/08/01 02:57:13;;;;;;;9.25;5.75;;;17.50;99.90;;;;;;4171113;28;20028;-64
2023/08/01 02:59:14;;;;;;;9.05;5.85;;;17.50;99.90;;;;;;4168421;28;20462;-64
2023/08/01 03:01:14;;;;;;;7.90;5.28;;;17.40;99.90;;;;;;4158099;28;20044;-64
2023/08/01 03:03:15;;;;;;;11.38;6.70;;;17.40;99.90;;;;;;4157565;28;20048;-64
2023/08/01 03:05:16;;;;;;;9.40;6.15;;;17.30;99.90;;;;;;4154580;28;20026;-64
2023/08/01 03:07:17;;;;;;;9.52;5.63;;;17.40;99.90;;;;;;4158040;28;20033;-64
2023/08/01 03:09:18;;;;;;;10.63;5.70;;;17.30;99.90;;;;;;4144755;28;20430;-64
2023/08/01 03:11:18;;;;;;;13.00;6.07;;;17.30;99.90;;;;;;4152299;28;20041;-64
2023/08/01 03:13:19;;;;;;;8.95;5.88;;;17.30;99.90;;;;;;4154953;28;20486;-64
2023/08/01 03:15:19;;;;;;;8.02;5.15;;;17.30;99.90;;;;;;4145208;28;20030;-64
2023/08/01 03:17:20;;;;;;;9.40;5.47;;;17.30;99.90;;;;;;4156159;28;20033;-64
2023/08/01 03:19:21;;;;;;;6.85;4.78;;;17.20;99.90;;;;;;4154642;28;20481;-64
2023/08/01 03:21:21;;;;;;;13.07;6.38;;;17.30;99.90;;;;;;4156063;28;20033;-64
2023/08/01 03:23:22;;;;;;;8.80;6.18;;;17.30;99.90;;;;;;4166997;28;20469;-64
2023/08/01 03:25:22;;;;;;;9.98;5.30;;;17.20;99.90;;;;;;4171526;28;20139;-64
2023/08/01 03:27:24;;;;;;;8.00;5.65;;;17.20;99.90;;;;;;4156031;28;20406;-64
2023/08/01 03:29:24;;;;;;;10.05;5.47;;;17.20;99.90;;;;;;4173119;28;20167;-64
2023/08/01 03:31:25;;;;;;;8.10;5.55;;;17.20;99.90;;;;;;4158753;28;20485;-68
2023/08/01 03:33:26;;;;;;;8.25;5.25;;;17.10;99.90;;;;;;4160398;28;20033;-65
2023/08/01 03:35:27;;;;;;;8.40;4.97;;;17.20;99.90;;;;;;4155530;28;20509;-64
2023/08/01 03:37:27;;;;;;;10.68;6.18;;;17.20;99.90;;;;;;4152381;28;20026;-64
2023/08/01 03:39:28;;;;;;;10.25;6.05;;;17.20;99.90;;;;;;4153058;28;20389;-72
2023/08/01 03:41:29;;;;;;;8.13;5.45;;;17.10;99.90;;;;;;4153193;28;20076;-66
2023/08/01 03:43:29;;;;;;;8.98;5.93;;;17.20;99.90;;;;;;4150858;28;20038;-68
2023/08/01 03:45:30;;;;;;;9.50;6.13;;;17.10;99.90;;;;;;4169024;28;20566;-66
2023/08/01 03:47:31;;;;;;;9.07;5.63;;;17.10;99.90;;;;;;4156892;28;20063;-66
2023/08/01 03:49:32;;;;;;;15.00;7.55;;;17.10;99.90;;;;;;4153817;28;20548;-66
2023/08/01 03:51:32;;;;;;;12.05;6.65;;;17.10;99.90;;;;;;4149809;28;20026;-66
2023/08/01 03:53:33;;;;;;;10.85;7.35;;;17.10;99.90;;;;;;4167148;28;20119;-66
2023/08/01 03:55:34;;;;;;;11.27;7.18;;;17.10;99.90;;;;;;4167916;28;20041;-65
2023/08/01 03:57:34;;;;;;;11.75;6.70;;;17.10;99.90;;;;;;4174402;28;20578;-66
2023/08/01 03:59:35;;;;;;;8.70;5.60;;;17.10;99.90;;;;;;4166963;28;20038;-66
2023/08/01 04:01:36;;;;;;;12.02;6.57;;;17.10;99.90;;;;;;4154368;28;20069;-66
2023/08/01 04:03:37;;;;;;;11.40;7.18;;;17.10;99.90;;;;;;4162860;28;20489;-65
2023/08/01 04:05:37;;;;;;;9.90;6.88;;;17.10;99.90;;;;;;4164254;28;20045;-66
2023/08/01 04:07:38;;;;;;;12.95;7.75;;;17.10;99.90;;;;;;4169516;28;20079;-66
2023/08/01 04:09:39;;;;;;;12.20;7.43;;;17.10;99.90;;;;;;4158097;28;20059;-66
2023/08/01 04:11:39;;;;;;;8.70;6.40;;;17.10;99.90;;;;;;4153477;28;20490;-66
2023/08/01 04:13:40;;;;;;;12.27;7.28;;;17.10;99.90;;;;;;4149930;28;20030;-66
2023/08/01 04:15:41;;;;;;;9.35;6.00;;;17.00;99.90;;;;;;4172466;28;20222;-66
2023/08/01 04:17:42;;;;;;;10.13;6.85;;;17.10;99.90;;;;;;4149773;28;20030;-66
2023/08/01 04:19:42;;;;;;;15.73;8.32;;;17.00;99.90;;;;;;4175284;28;20041;-65
2023/08/01 04:21:43;;;;;;;10.43;6.97;;;17.00;99.90;;;;;;4170337;28;20032;-65
2023/08/01 04:23:43;;;;;;;9.13;6.70;;;17.00;99.90;;;;;;4174605;28;20064;-66
2023/08/01 04:25:45;;;;;;;9.93;6.82;;;17.00;99.90;;;;;;4167234;28;20034;-66
2023/08/01 04:27:45;;;;;;;10.93;6.20;;;17.00;99.90;;;;;;4172623;28;20058;-66
2023/08/01 04:29:47;;;;;;;11.63;7.00;;;17.00;99.90;;;;;;4152125;28;20033;-66
2023/08/01 04:31:48;;;;;;;11.23;6.88;;;17.10;99.90;;;;;;4156200;28;20061;-65
2023/08/01 04:33:48;;;;;;;11.60;6.93;;;17.00;99.90;;;;;;4158930;28;20520;-66
2023/08/01 04:35:49;;;;;;;12.80;7.20;;;17.10;99.90;;;;;;4158252;28;20033;-66
2023/08/01 04:37:50;;;;;;;12.38;6.70;;;17.10;99.90;;;;;;4157251;28;20486;-65
2023/08/01 04:39:50;;;;;;;10.27;7.45;;;17.10;99.90;;;;;;4159043;28;20494;-66
2023/08/01 04:41:51;;;;;;;12.07;7.07;;;17.10;99.90;;;;;;4145387;28;20072;-66
2023/08/01 04:43:51;;;;;;;13.13;8.23;;;17.00;99.90;;;;;;4160157;28;20025;-66
2023/08/01 04:45:52;;;;;;;8.80;6.95;;;17.00;99.90;;;;;;4156013;28;20705;-66
2023/08/01 04:47:53;;;;;;;20.00;8.27;;;17.00;99.90;;;;;;4173705;28;20036;-66
2023/08/01 04:49:53;;;;;;;18.50;8.98;;;17.00;99.90;;;;;;4175616;28;20033;-68
2023/08/01 04:51:55;;;;;;;14.23;9.48;;;17.00;99.90;;;;;;4172292;28;20036;-68
2023/08/01 04:53:56;;;;;;;14.18;8.30;;;16.90;99.90;;;;;;4167333;28;20041;-68
2023/08/01 04:55:56;;;;;;;10.75;8.07;;;17.00;99.90;;;;;;4172502;28;20485;-68
2023/08/01 04:57:57;;;;;;;14.15;9.00;;;17.00;99.90;;;;;;4155857;28;20137;-68
2023/08/01 04:59:59;;;;;;;11.60;8.18;;;17.00;99.90;;;;;;4161847;28;20116;-68
2023/08/01 05:02:00;;;;;;;16.63;8.52;;;17.00;99.90;;;;;;4174217;28;20028;-69
2023/08/01 05:04:00;;;;;;;17.60;10.50;;;17.00;99.90;;;;;;4158208;28;20132;-69
2023/08/01 05:06:01;;;;;;;15.40;9.20;;;17.10;99.90;;;;;;4156429;28;20099;-69
2023/08/01 05:08:01;;;;;;;14.88;9.10;;;17.10;99.90;;;;;;4158211;28;20144;-68
2023/08/01 05:10:02;;;;;;;18.90;10.70;;;17.10;99.90;;;;;;4153251;28;20040;-69
2023/08/01 05:12:03;;;;;;;13.35;9.63;;;17.10;99.90;;;;;;4152429;28;20120;-68
2023/08/01 05:14:04;;;;;;;11.68;8.65;;;17.10;99.90;;;;;;4159393;28;20025;-68
2023/08/01 05:16:04;;;;;;;11.20;8.18;;;17.10;99.90;;;;;;4155969;28;20105;-68
2023/08/01 05:18:05;;;;;;;15.45;9.50;;;17.10;99.90;;;;;;4161377;28;20041;-68
2023/08/01 05:20:06;;;;;;;15.25;10.65;;;17.10;99.90;;;;;;4154284;28;20896;-69
2023/08/01 05:22:07;;;;;;;15.80;9.95;;;17.10;99.90;;;;;;4150310;28;20048;-69
2023/08/01 05:24:07;;;;;;;15.88;10.65;;;17.10;99.90;;;;;;4154058;28;20449;-68
2023/08/01 05:26:08;;;;;;;15.50;10.52;;;17.00;99.90;;;;;;4152258;28;20770;-68
2023/08/01 05:28:09;;;;;;;16.20;9.75;;;17.00;99.90;;;;;;4154634;28;20032;-67
2023/08/01 05:30:10;;;;;;;13.32;9.32;;;17.00;99.90;;;;;;4152263;28;20025;-68
2023/08/01 05:32:11;;;;;;;18.70;9.30;;;17.00;99.90;;;;;;4146263;28;20399;-68
2023/08/01 05:34:11;;;;;;;13.63;9.68;;;17.10;99.90;;;;;;4132680;28;20049;-68
2023/08/01 05:36:12;;;;;;;18.40;10.65;;;17.00;99.90;;;;;;4138441;28;20585;-68
2023/08/01 05:38:12;;;;;;;18.88;11.25;;;17.00;99.90;;;;;;4156139;28;20033;-68
2023/08/01 05:40:13;;;;;;;14.32;9.65;;;17.00;99.90;;;;;;4150363;28;20115;-69
2023/08/01 05:42:14;;;;;;;15.93;10.18;;;17.00;99.90;;;;;;4157488;28;20044;-68
2023/08/01 05:44:14;;;;;;;14.52;9.43;;;17.00;99.90;;;;;;4163254;28;20045;-68
2023/08/01 05:46:15;;;;;;;14.70;9.90;;;17.10;99.90;;;;;;4148468;28;20413;-66
2023/08/01 05:48:16;;;;;;;13.98;10.05;;;17.10;99.90;;;;;;4154596;28;20030;-67
2023/08/01 05:50:16;;;;;;;14.98;9.77;;;17.10;99.90;;;;;;4164487;28;20296;-67
2023/08/01 05:52:17;;;;;;;13.32;9.27;;;17.10;99.90;;;;;;4153029;28;20553;-67
2023/08/01 05:54:18;;;;;;;15.65;9.50;;;17.10;99.90;;;;;;4164355;28;20371;-67
2023/08/01 05:56:19;;;;;;;11.52;8.48;;;17.10;99.90;;;;;;4152357;28;20029;-66
2023/08/01 05:58:19;;;;;;;13.68;9.15;;;17.10;99.90;;;;;;4147859;28;20117;-66
2023/08/01 06:00:21;;;;;;;17.70;9.65;;;17.10;99.90;;;;;;4150153;28;20037;-66
2023/08/01 06:02:21;;;;;;;17.08;9.43;;;17.10;99.90;;;;;;4150989;28;20117;-65
2023/08/01 06:04:22;;;;;;;14.70;9.73;;;17.10;99.90;;;;;;4164092;28;20059;-66
2023/08/01 06:06:23;;;;;;;14.48;9.07;;;17.10;99.90;;;;;;4141745;28;20041;-65
2023/08/01 06:08:23;;;;;;;15.85;9.35;;;17.00;99.90;;;;;;4166030;28;20041;-66
2023/08/01 06:10:25;;;;;;;14.38;9.20;;;17.00;99.90;;;;;;4153609;28;20037;-65
2023/08/01 06:12:25;;;;;;;16.95;9.48;;;17.10;99.90;;;;;;4155604;28;20088;-65
2023/08/01 06:14:26;;;;;;;13.55;8.38;;;17.10;99.90;;;;;;4149406;28;20037;-66
2023/08/01 06:16:28;;;;;;;17.90;9.45;;;17.10;99.90;;;;;;4169317;28;20045;-65
2023/08/01 06:18:28;;;;;;;11.40;7.93;;;17.10;99.90;;;;;;4176680;28;20108;-65
2023/08/01 06:20:29;;;;;;;13.32;8.85;;;17.10;99.90;;;;;;4174408;28;20492;-66
2023/08/01 06:22:30;;;;;;;18.67;10.18;;;17.20;99.90;;;;;;4172762;28;20116;-65
2023/08/01 06:24:31;;;;;;;20.50;9.90;;;17.10;99.90;;;;;;4174218;28;20091;-65
2023/08/01 06:26:31;;;;;;;18.90;10.00;;;17.20;99.90;;;;;;4146505;28;20050;-66
2023/08/01 06:28:32;;;;;;;15.00;9.48;;;17.20;99.90;;;;;;4127600;28;20045;-66
2023/08/01 06:30:33;;;;;;;15.48;9.35;;;17.20;99.90;;;;;;4150060;28;20076;-66
2023/08/01 06:32:33;;;;;;;12.75;7.95;;;17.20;99.90;;;;;;4154064;28;20077;-65
2023/08/01 06:34:34;;;;;;;11.23;7.28;;;17.20;99.90;;;;;;4157796;28;20488;-65
2023/08/01 06:36:35;;;;;;;17.15;8.80;;;17.30;99.90;;;;;;4141747;28;20048;-65
2023/08/01 06:38:35;;;;;;;16.50;7.75;;;17.20;99.90;;;;;;4163631;28;20087;-65
2023/08/01 06:40:36;;;;;;;12.70;8.32;;;17.30;99.90;;;;;;4160731;28;20040;-66
2023/08/01 06:42:36;;;;;;;13.35;7.75;;;17.20;99.90;;;;;;4165977;28;20493;-66
2023/08/01 06:44:37;;;;;;;13.50;7.68;;;17.20;99.90;;;;;;4175510;28;20120;-66
2023/08/01 06:46:38;;;;;;;18.13;7.45;;;17.30;99.90;;;;;;4163882;28;20033;-66
2023/08/01 06:48:38;;;;;;;11.98;7.25;;;17.30;99.90;;;;;;4171421;28;20086;-69
2023/08/01 06:50:39;;;;;;;11.60;7.10;;;17.30;99.90;;;;;;4161195;28;20051;-66
2023/08/01 06:52:39;;;;;;;11.68;7.13;;;17.30;99.90;;;;;;4151892;28;20465;-66
2023/08/01 06:54:40;;;;;;;12.38;7.68;;;17.30;99.90;;;;;;4173332;28;20094;-67
2023/08/01 06:56:47;;;;;;;10.70;7.05;;;17.40;99.90;;;;;;4174314;28;20500;-66
2023/08/01 06:58:47;;;;;;;12.82;6.90;;;17.40;99.90;;;;;;4176038;28;20098;-66
2023/08/01 07:00:48;;;;;;;9.88;5.68;;;17.50;99.90;;;;;;4152441;28;20029;-66
2023/08/01 07:02:50;;;;;;;11.23;7.05;;;17.70;99.90;;;;;;4152992;28;20411;-65
2023/08/01 07:04:50;;;;;;;13.05;6.80;;;17.80;99.90;;;;;;4166960;28;20097;-66
2023/08/01 07:06:51;;;;;;;14.57;7.35;;;17.80;99.90;;;;;;4154212;28;21052;-65
2023/08/01 07:08:51;;;;;;;10.60;6.50;;;17.90;99.90;;;;;;4164594;28;20139;-64
2023/08/01 07:10:52;;;;;;;10.50;5.50;;;17.90;99.90;;;;;;4173783;28;20044;-72
2023/08/01 07:12:53;;;;;;;7.50;5.22;;;17.90;99.90;;;;;;4163291;28;20998;-72
2023/08/01 07:14:53;;;;;;;10.95;5.93;;;17.90;99.90;;;;;;4158964;28;20072;-72
2023/08/01 07:16:54;;;;;;;9.25;5.80;;;18.00;99.90;;;;;;4158524;28;20042;-72
2023/08/01 07:18:55;;;;;;;12.82;6.32;;;17.90;99.90;;;;;;4137025;28;20046;-72
2023/08/01 07:21:00;;;;;;;9.85;6.03;;;17.90;99.90;;;;;;4157920;28;20040;-72
2023/08/01 07:23:01;;;;;;;9.68;6.25;;;17.90;99.90;;;;;;4148221;28;20100;-72
2023/08/01 07:25:02;;;;;;;9.68;5.90;;;17.90;99.90;;;;;;4172342;28;20497;-72
2023/08/01 07:27:03;;;;;;;9.13;5.60;;;17.90;99.90;;;;;;4172490;28;20401;-72
2023/08/01 07:29:03;;;;;;;12.43;6.72;;;17.90;99.90;;;;;;4174891;28;20031;-72
2023/08/01 07:31:06;;;;;;;10.02;6.78;;;17.90;99.90;;;;;;4145583;28;20051;-72
2023/08/01 07:33:06;;;;;;;;;;;17.80;99.90;;;;;;4175727;28;20112;-72
2023/08/01 07:35:07;;;;;;;12.48;6.45;;;17.90;99.90;;;;;;4167896;28;20272;-72
2023/08/01 07:37:08;;;;;;;13.73;6.35;;;17.90;99.90;;;;;;4173372;28;20041;-72
2023/08/01 07:39:09;;;;;;;9.52;6.13;;;18.00;99.90;;;;;;4172522;28;20123;-71
2023/08/01 07:41:09;;;;;;;11.77;6.25;;;18.00;99.90;;;;;;4148948;28;20716;-71
2023/08/01 07:43:10;;;;;;;13.75;7.38;;;18.10;99.90;;;;;;4169227;28;20400;-71
2023/08/01 07:45:11;;;;;;;13.10;6.15;;;18.10;99.90;;;;;;4167507;28;20040;-73
2023/08/01 07:47:12;;;;;;;15.48;6.97;;;18.10;99.90;;;;;;4173742;28;20135;-71
2023/08/01 07:49:13;;;;;;;13.45;6.88;;;18.20;99.90;;;;;;4174676;28;20064;-72
2023/08/01 07:51:13;;;;;;;11.13;6.18;;;18.20;99.90;;;;;;4170198;28;20026;-72
2023/08/01 07:53:14;;;;;;;11.23;5.97;;;18.20;99.90;;;;;;4173967;28;20486;-72
2023/08/01 07:55:15;;;;;;;10.40;6.05;;;18.20;99.90;;;;;;4165962;28;20036;-72
2023/08/01 07:57:16;;;;;;;9.07;5.82;;;18.20;99.90;;;;;;4169772;28;20595;-72
2023/08/01 07:59:16;;;;;;;13.13;6.63;;;18.30;99.90;;;;;;4172220;28;20458;-72
2023/08/01 08:01:17;;;;;;;9.75;5.95;;;18.20;99.90;;;;;;4153634;28;20064;-72
2023/08/01 08:03:17;;;;;;;15.40;6.90;;;18.20;99.90;;;;;;4157513;28;20038;-72
2023/08/01 08:05:18;;;;;;;7.63;5.00;;;18.20;99.90;;;;;;4146133;28;20606;-72
2023/08/01 08:07:19;;;;;;;10.60;6.20;;;18.20;99.90;;;;;;4144649;28;20053;-72
2023/08/01 08:09:19;;;;;;;11.48;6.05;;;18.20;99.90;;;;;;4149128;28;20444;-72
2023/08/01 08:11:20;;;;;;;8.80;5.60;;;18.20;99.90;;;;;;4145044;28;20120;-73
2023/08/01 08:13:20;;;;;;;11.98;6.25;;;18.20;99.90;;;;;;4162420;28;20029;-72
2023/08/01 08:15:23;;;;;;;11.00;5.90;;;18.30;99.90;;;;;;4141146;28;20053;-72
2023/08/01 08:17:23;;;;;;;9.80;6.13;;;18.20;99.90;;;;;;4150617;28;20584;-72
2023/08/01 08:19:25;;;;;;;12.43;5.78;;;18.30;99.90;;;;;;4145550;28;20045;-67
2023/08/01 08:21:25;;;;;;;11.13;5.63;;;18.30;99.90;;;;;;4154219;28;20026;-69
2023/08/01 08:23:26;;;;;;;7.63;5.47;;;18.40;99.90;;;;;;4148831;28;20042;-69
2023/08/01 08:25:26;;;;;;;9.88;5.80;;;18.40;99.90;;;;;;4151181;28;20513;-69
2023/08/01 08:27:27;;;;;;;11.38;6.43;;;18.40;99.90;;;;;;4149570;28;20053;-69
2023/08/01 08:29:28;;;;;;;10.43;5.47;;;18.40;99.90;;;;;;4150643;28;20080;-66
2023/08/01 08:31:28;;;;;;;8.32;5.38;;;18.40;99.90;;;;;;4148796;28;20034;-72
2023/08/01 08:33:29;;;;;;;11.55;5.78;;;18.40;99.90;;;;;;4144384;28;20030;-72
2023/08/01 08:35:30;;;;;;;11.60;5.63;;;18.30;99.90;;;;;;4148231;28;20038;-71
2023/08/01 08:37:31;;;;;;;8.13;5.38;;;18.40;99.90;;;;;;4146484;28;20478;-71
2023/08/01 08:39:34;;;;;;;11.85;5.90;;;18.50;99.90;;;;;;4149184;28;20112;-65
2023/08/01 08:41:47;;;;;;;9.98;5.03;;;18.50;99.90;;;;;;4154316;28;20117;-68
2023/08/01 08:43:49;;;;;;;12.52;5.40;;;18.70;99.90;;;;;;4156014;28;20079;-68
2023/08/01 08:45:53;;;;;;;12.13;5.47;;;18.70;99.90;;;;;;4142215;28;20056;-67
2023/08/01 08:48:01;;;;;;;8.95;5.03;;;18.80;99.90;;;;;;4150178;28;20034;-67
2023/08/01 08:50:02;;;;;;;10.48;5.32;;;19.00;99.90;;;;;;4155883;28;20501;-68
2023/08/01 08:52:03;;;;;;;11.20;5.60;;;19.10;99.90;;;;;;4152606;28;20044;-68
2023/08/01 08:54:23;;;;;;;9.38;4.68;;;19.20;99.90;;;;;;4122771;28;20052;-68
2023/08/01 08:56:24;;;;;;;14.32;5.85;;;19.40;99.90;;;;;;4121727;28;20038;-68
2023/08/01 08:58:25;;;;;;;9.65;4.18;;;19.40;99.90;;;;;;4135242;28;20069;-68
2023/08/01 09:00:27;;;;;;;7.80;3.75;;;19.40;99.90;;;;;;4137591;28;20064;-69
2023/08/01 09:02:28;;;;;;;10.10;3.63;;;19.50;99.90;;;;;;4141724;28;20038;-67
2023/08/01 09:04:30;;;;;;;6.20;3.55;;;19.60;99.90;;;;;;4140843;28;20033;-67
2023/08/01 09:06:44;;;;;;;7.35;3.70;;;19.70;99.90;;;;;;4146264;28;20563;-67
2023/08/01 09:09:09;;;;;;;8.68;3.67;;;19.80;99.90;;;;;;4147470;28;20041;-67
2023/08/01 09:11:10;;;;;;;9.73;3.38;;;19.80;99.90;;;;;;4152314;28;20092;-68
2023/08/01 09:13:10;;;;;;;6.82;3.80;;;20.00;99.90;;;;;;4149129;28;20067;-67
2023/08/01 09:15:12;;;;;;;8.35;3.25;;;20.00;99.90;;;;;;4149664;28;20029;-68
2023/08/01 09:17:16;;;;;;;6.78;3.35;;;20.10;99.90;;;;;;4152504;28;20512;-67
2023/08/01 09:19:21;;;;;;;6.30;3.08;;;20.10;99.90;;;;;;4152206;28;20115;-67
2023/08/01 09:21:22;;;;;;;6.63;2.85;;;20.20;99.90;;;;;;4152780;28;20038;-67
2023/08/01 09:23:25;;;;;;;9.43;3.63;;;20.40;99.90;;;;;;4152954;28;20060;-67
2023/08/01 09:25:32;;;;;;;6.30;2.95;;;20.40;99.90;;;;;;4151866;28;20064;-68
2023/08/01 09:27:33;;;;;;;7.32;3.38;;;20.60;99.90;;;;;;4154819;28;20501;-67
2023/08/01 09:29:34;;;;;;;5.70;3.00;;;20.60;99.90;;;;;;4151324;28;20038;-67
2023/08/01 09:31:37;;;;;;;6.00;3.33;;;20.60;99.90;;;;;;4148858;28;20079;-67
2023/08/01 09:33:42;;;;;;;8.85;3.15;;;20.60;99.90;;;;;;4152335;28;20500;-67
2023/08/01 09:35:45;;;;;;;8.73;3.33;;;20.60;99.90;;;;;;4150305;28;20044;-66
2023/08/01 09:37:46;;;;;;;6.57;2.55;;;20.60;99.90;;;;;;4153601;28;20171;-66
2023/08/01 09:39:54;;;;;;;5.53;2.90;;;20.60;99.90;;;;;;4154540;28;20052;-66
2023/08/01 09:41:56;;;;;;;5.90;2.42;;;20.80;99.90;;;;;;4151777;28;20053;-67
2023/08/01 09:43:57;;;;;;;5.75;2.95;;;20.80;99.90;;;;;;4154473;28;20045;-67
2023/08/01 09:45:58;;;;;;;7.40;2.92;;;20.70;99.90;;;;;;4148728;28;20046;-66
2023/08/01 09:47:59;;;;;;;4.75;2.50;;;20.70;99.90;;;;;;4167400;28;20030;-67
2023/08/01 09:49:59;;;;;;;4.57;2.90;;;20.70;99.90;;;;;;4152506;28;20037;-67
2023/08/01 09:52:01;;;;;;;6.72;3.05;;;20.70;99.90;;;;;;4164563;28;20036;-66
2023/08/01 09:54:01;;;;;;;8.20;3.17;;;20.80;99.90;;;;;;4169723;28;20045;-66
2023/08/01 09:56:03;;;;;;;5.15;2.88;;;20.80;99.90;;;;;;4165843;28;20598;-67
2023/08/01 09:58:05;;;;;;;8.18;3.00;;;20.70;99.90;;;;;;4169077;28;20048;-66
2023/08/01 10:00:09;;;;;;;5.20;2.55;;;20.60;99.90;;;;;;4170726;28;20055;-68
2023/08/01 10:02:15;;;;;;;7.25;3.00;;;20.50;99.90;;;;;;4149945;28;20033;-65
2023/08/01 10:04:29;;;;;;;5.10;2.88;;;20.60;99.90;;;;;;4168337;28;20690;-66
2023/08/01 10:06:33;;;;;;;8.68;3.10;;;20.60;99.90;;;;;;4160086;28;20531;-66
2023/08/01 10:08:34;;;;;;;6.15;3.05;;;20.60;99.90;;;;;;4149045;28;20040;-66
2023/08/01 10:10:35;;;;;;;5.75;2.90;;;20.60;99.90;;;;;;4153539;28;20096;-66
2023/08/01 10:12:37;;;;;;;7.40;3.13;;;20.80;99.90;;;;;;4146867;28;20037;-66
2023/08/01 10:14:38;;;;;;;4.18;2.90;;;20.80;99.90;;;;;;4146617;28;20030;-66
2023/08/01 10:16:41;;;;;;;6.25;2.95;;;20.80;99.90;;;;;;4145309;28;20045;-67
2023/08/01 10:18:43;;;;;;;6.28;2.90;;;20.80;99.90;;;;;;4149364;28;20056;-66
2023/08/01 10:20:44;;;;;;;7.20;3.17;;;20.80;99.90;;;;;;4147339;28;20087;-66
2023/08/01 10:22:45;;;;;;;6.30;3.03;;;20.80;99.90;;;;;;4147276;28;20975;-66
2023/08/01 10:24:47;;;;;;;6.40;2.95;;;20.70;99.90;;;;;;4145997;28;20065;-67
2023/08/01 10:26:48;;;;;;;5.50;3.00;;;20.70;99.90;;;;;;4146125;28;20494;-66
2023/08/01 10:28:52;;;;;;;3.88;2.58;;;20.60;99.90;;;;;;4146314;28;20041;-66